CDT,Max TemperatureF,Mean TemperatureF,Min TemperatureF,Max Dew PointF,MeanDew PointF,Min DewpointF,Max Humidity, Mean Humidity, Min Humidity, Max Sea Level PressureIn, Mean Sea Level PressureIn, Min Sea Level PressureIn, Max VisibilityMiles, Mean VisibilityMiles, Min VisibilityMiles, Max Wind SpeedMPH, Mean Wind SpeedMPH, Max Gust SpeedMPH,PrecipitationIn, CloudCover, Events, WindDirDegrees
2013-6-1,71,66,60,65,53,48,79,66,52,30.01,29.84,29.71,10,10,10,21,12,30,0.00,4,,290
2013-6-2,69,62,54,50,48,46,77,61,45,30.13,30.07,30.01,10,10,10,17,7,20,0.00,6,,347
2013-6-3,77,63,49,56,52,47,89,68,46,30.07,29.97,29.86,10,10,9,21,9,26,0.00,0,,123
2013-6-4,80,72,64,65,61,56,81,70,58,29.96,29.89,29.82,10,10,10,18,9,23,T,2,,130
2013-6-5,72,66,60,64,62,58,97,83,68,29.99,29.96,29.92,10,7,2,20,5,27,0.16,6,Rain-Thunderstorm,6
2013-6-6,77,67,57,59,54,51,90,67,43,29.98,29.96,29.92,10,10,2,15,4,18,0.00,3,,324
2013-6-7,79,66,53,56,52,48,93,64,35,30.02,29.97,29.91,10,10,10,15,4,19,0.00,1,,10
2013-6-8,84,70,56,62,57,50,93,68,43,29.92,29.83,29.72,10,9,2,26,11,34,0.63,4,Rain-Thunderstorm,178
2013-6-9,84,73,62,63,58,49,93,62,31,29.88,29.82,29.76,10,9,3,24,8,33,0.05,3,Rain-Thunderstorm,274
2013-6-10,88,73,58,68,60,56,97,67,37,29.89,29.85,29.78,10,10,2,14,5,18,0.00,0,,120
2013-6-11,98,85,71,69,64,57,90,59,27,29.86,29.80,29.74,10,10,10,25,11,33,0.00,0,,165
2013-6-12,97,84,70,69,67,58,71,55,39,29.95,29.78,29.72,10,10,9,23,13,33,0.00,0,,237
2013-6-13,86,74,61,63,58,54,78,61,43,30.07,30.01,29.95,10,10,10,17,6,22,0.00,0,,21
2013-6-14,94,81,67,73,68,62,87,67,46,29.99,29.91,29.81,10,10,10,23,11,30,0.00,0,,131
2013-6-15,90,80,69,73,69,66,90,70,50,29.97,29.91,29.86,10,10,9,22,8,28,0.05,2,Rain-Thunderstorm,156
2013-6-16,86,77,68,71,69,65,93,77,61,29.98,29.94,29.88,10,10,7,13,4,16,0.00,5,,40
2013-6-17,85,77,68,70,68,65,93,74,55,30.01,29.95,29.88,10,9,5,16,5,19,0.14,4,Rain-Thunderstorm,84
2013-6-18,88,76,64,68,64,59,93,70,46,30.08,30.00,29.97,10,8,0,37,5,47,1.53,3,Rain-Thunderstorm,18
2013-6-19,88,76,64,68,64,59,93,66,39,30.03,29.98,29.91,10,9,2,18,7,22,0.00,1,,143
2013-6-20,92,81,70,73,69,64,84,68,52,29.97,29.91,29.83,10,10,10,25,13,33,0.00,1,,149
2013-6-21,93,86,78,73,70,66,79,64,49,29.93,29.89,29.85,10,10,10,24,11,32,T,0,,168
2013-6-22,93,85,77,70,68,65,69,58,46,29.95,29.88,29.81,10,10,10,28,12,36,0.00,0,Rain,168
2013-6-23,91,83,74,73,69,67,84,67,49,29.95,29.86,29.79,10,10,9,31,12,39,0.02,2,Rain-Thunderstorm,152
2013-6-24,90,84,78,70,68,64,71,59,46,29.91,29.85,29.77,10,10,10,33,15,43,0.02,1,Rain-Thunderstorm,177
2013-6-25,91,83,74,72,70,67,82,67,52,29.88,29.76,29.68,10,10,8,28,13,37,0.09,3,Rain-Thunderstorm,171
2013-6-26,98,86,73,72,69,62,87,59,31,29.87,29.79,29.69,10,10,10,13,6,18,0.00,0,,291
2013-6-27,87,80,72,76,70,67,87,74,61,29.97,29.91,29.82,10,9,1,14,4,37,0.46,3,Rain-Thunderstorm,33
2013-6-28,89,79,69,70,64,57,97,67,36,29.96,29.92,29.88,10,10,9,21,8,24,0.00,0,,311
2013-6-29,86,76,65,60,56,52,78,55,32,29.91,29.87,29.83,10,10,10,31,12,38,T,1,Rain,318
2013-6-30,80,71,62,58,55,53,78,59,39,30.05,29.98,29.91,10,10,10,18,9,24,0.00,1,,353